createdAt,value
2018-09-13T00:03:07.143Z,16.70
2018-09-13T00:08:29.473Z,16.60
2018-09-13T00:13:51.385Z,16.60
2018-09-13T00:19:13.294Z,16.60
2018-09-13T00:24:35.217Z,16.60
2018-09-13T00:29:57.310Z,16.50
2018-09-13T00:35:19.166Z,16.50
2018-09-13T00:40:41.446Z,16.50
2018-09-13T00:46:03.268Z,16.50
2018-09-13T00:51:25.310Z,16.50
2018-09-13T00:56:47.421Z,16.40
2018-09-13T01:02:09.542Z,16.40
2018-09-13T01:07:31.398Z,16.40
2018-09-13T01:12:53.397Z,16.40
2018-09-13T01:18:15.230Z,16.40
2018-09-13T01:23:37.351Z,16.30
2018-09-13T01:28:59.145Z,16.30
2018-09-13T01:34:21.258Z,16.20
2018-09-13T01:39:43.614Z,16.20
2018-09-13T01:45:05.710Z,16.30
2018-09-13T01:50:27.445Z,16.20
2018-09-13T01:55:49.518Z,16.20
2018-09-13T02:01:11.333Z,16.20
2018-09-13T02:06:33.769Z,16.10
2018-09-13T02:11:56.199Z,16.10
2018-09-13T02:17:18.244Z,16.00
2018-09-13T02:22:40.361Z,16.00
2018-09-13T02:28:02.185Z,16.00
2018-09-13T02:33:24.479Z,16.00
2018-09-13T02:38:46.527Z,15.90
2018-09-13T02:44:09.746Z,15.90
2018-09-13T02:49:31.933Z,15.80
2018-09-13T02:54:54.021Z,15.80
2018-09-13T03:00:16.221Z,15.80
2018-09-13T03:05:38.010Z,15.70
2018-09-13T03:10:59.703Z,15.80
2018-09-13T03:16:21.666Z,15.80
2018-09-13T03:21:43.802Z,15.70
2018-09-13T03:27:08.070Z,15.70
2018-09-13T03:32:29.994Z,15.70
2018-09-13T03:37:52.357Z,15.70
2018-09-13T03:43:14.188Z,15.70
2018-09-13T03:48:36.334Z,15.70
2018-09-13T03:53:58.411Z,15.70
2018-09-13T03:59:20.645Z,15.70
2018-09-13T04:04:42.743Z,15.60
2018-09-13T04:10:04.799Z,15.70
2018-09-13T04:15:27.141Z,15.60
2018-09-13T04:20:48.742Z,15.60
2018-09-13T04:26:10.994Z,15.60
2018-09-13T04:31:33.882Z,15.60
2018-09-13T04:36:55.685Z,15.60
2018-09-13T04:42:17.676Z,15.50
2018-09-13T04:47:39.461Z,15.60
2018-09-13T04:53:01.471Z,15.50
2018-09-13T04:58:23.523Z,15.50
2018-09-13T05:03:45.622Z,15.50
2018-09-13T05:09:10.189Z,15.50
2018-09-13T05:14:32.413Z,15.40
2018-09-13T05:19:54.307Z,15.40
2018-09-13T05:25:16.699Z,15.30
2018-09-13T05:30:39.713Z,15.30
2018-09-13T05:36:02.045Z,15.40
2018-09-13T05:41:23.822Z,15.30
2018-09-13T05:46:47.996Z,15.40
2018-09-13T05:52:10.240Z,15.30
2018-09-13T05:57:31.913Z,15.30
2018-09-13T06:02:54.030Z,15.30
2018-09-13T06:08:16.019Z,15.40
2018-09-13T06:13:38.160Z,15.30
2018-09-13T06:18:59.902Z,15.30
2018-09-13T06:24:22.026Z,15.30
2018-09-13T06:29:44.022Z,15.30
2018-09-13T06:35:07.811Z,15.30
2018-09-13T06:40:29.763Z,15.30
2018-09-13T06:45:51.991Z,15.30
2018-09-13T06:51:14.453Z,15.30
2018-09-13T06:56:36.190Z,15.40
2018-09-13T07:01:58.346Z,15.40
2018-09-13T07:07:20.976Z,15.40
2018-09-13T07:12:42.783Z,15.40
2018-09-13T07:18:04.907Z,15.40
2018-09-13T07:23:26.846Z,15.40
2018-09-13T07:28:49.014Z,15.50
2018-09-13T07:34:10.951Z,15.50
2018-09-13T07:39:33.755Z,15.60
2018-09-13T07:44:56.677Z,15.60
2018-09-13T07:50:18.870Z,15.70
2018-09-13T07:55:40.776Z,15.80
2018-09-13T08:01:03.064Z,15.80
2018-09-13T08:06:24.968Z,16.00
2018-09-13T08:11:48.722Z,16.10
2018-09-13T08:17:10.663Z,16.30
2018-09-13T08:22:32.567Z,16.50
2018-09-13T08:27:54.357Z,16.70
2018-09-13T08:33:16.489Z,16.80
2018-09-13T08:38:38.292Z,17.10
2018-09-13T08:44:07.221Z,17.20
2018-09-13T08:49:35.625Z,17.20
2018-09-13T08:55:00.407Z,17.30
2018-09-13T09:00:22.449Z,17.60
2018-09-13T09:05:44.261Z,17.80
2018-09-13T09:11:06.289Z,18.10
2018-09-13T09:16:28.416Z,18.30
2018-09-13T09:21:50.726Z,18.60
2018-09-13T09:27:12.546Z,18.70
2018-09-13T09:32:34.785Z,18.80
2018-09-13T09:37:56.894Z,18.70
2018-09-13T09:43:18.790Z,19.20
2018-09-13T09:48:40.910Z,19.70
2018-09-13T09:54:02.822Z,19.70
2018-09-13T09:59:24.991Z,19.50
2018-09-13T10:04:47.302Z,19.60
2018-09-13T10:10:09.347Z,19.80
2018-09-13T10:15:35.806Z,20.00
2018-09-13T10:21:02.783Z,20.10
2018-09-13T10:26:30.674Z,20.00
2018-09-13T10:31:57.719Z,19.70
2018-09-13T10:37:25.434Z,19.80
2018-09-13T10:42:52.589Z,19.90
2018-09-13T10:48:19.529Z,19.90
2018-09-13T10:53:46.416Z,19.80
2018-09-13T10:59:09.876Z,19.80
2018-09-13T11:04:32.240Z,19.90
2018-09-13T11:09:54.201Z,19.90
2018-09-13T11:15:21.273Z,20.10
2018-09-13T11:20:43.482Z,20.10
2018-09-13T11:26:05.541Z,20.00
2018-09-13T11:31:27.726Z,20.00
2018-09-13T11:36:49.684Z,20.00
2018-09-13T11:42:11.711Z,20.20
2018-09-13T11:47:34.632Z,20.10
2018-09-13T11:52:56.809Z,20.10
2018-09-13T11:58:19.714Z,20.30
2018-09-13T12:03:43.963Z,20.20
2018-09-13T12:09:08.970Z,20.10
2018-09-13T12:14:31.073Z,20.20
2018-09-13T12:19:52.940Z,20.10
2018-09-13T12:25:15.182Z,20.20
2018-09-13T12:30:37.198Z,20.10
2018-09-13T12:35:59.235Z,20.20
2018-09-13T12:41:21.128Z,20.20
2018-09-13T12:46:43.294Z,20.20
2018-09-13T12:52:05.183Z,20.20
2018-09-13T12:57:27.268Z,20.40
2018-09-13T13:02:50.690Z,20.70
2018-09-13T13:08:13.950Z,20.90
2018-09-13T13:13:35.842Z,21.10
2018-09-13T13:18:58.095Z,20.90
2018-09-13T13:24:20.123Z,20.80
2018-09-13T13:29:42.149Z,20.70
2018-09-13T13:35:04.086Z,20.70
2018-09-13T13:40:26.418Z,20.60
2018-09-13T13:45:48.153Z,20.50
2018-09-13T13:51:10.300Z,20.40
2018-09-13T13:56:32.017Z,20.50
2018-09-13T14:01:54.174Z,20.80
2018-09-13T14:07:16.138Z,21.20
2018-09-13T14:12:38.225Z,21.20
2018-09-13T14:18:00.002Z,21.00
2018-09-13T14:23:22.298Z,20.90
2018-09-13T14:28:44.125Z,20.90
2018-09-13T14:34:06.190Z,20.70
2018-09-13T14:39:28.453Z,20.50
2018-09-13T14:44:50.430Z,20.50
2018-09-13T14:50:12.873Z,20.40
2018-09-13T14:55:34.995Z,20.40
2018-09-13T15:00:57.352Z,20.30
2018-09-13T15:06:19.390Z,20.30
2018-09-13T15:11:43.241Z,20.30
2018-09-13T15:17:05.901Z,20.20
2018-09-13T15:22:27.987Z,20.40
2018-09-13T15:27:50.269Z,20.20
2018-09-13T15:33:12.145Z,20.10
2018-09-13T15:38:34.383Z,20.00
2018-09-13T15:43:56.961Z,20.00
2018-09-13T15:49:19.656Z,20.20
2018-09-13T15:54:41.627Z,20.50
2018-09-13T16:00:03.843Z,20.80
2018-09-13T16:05:25.540Z,20.80
2018-09-13T16:10:47.687Z,20.50
2018-09-13T16:16:09.644Z,20.50
2018-09-13T16:21:33.238Z,20.50
2018-09-13T16:26:55.166Z,20.50
2018-09-13T16:32:22.158Z,20.60
2018-09-13T16:37:49.174Z,20.80
2018-09-13T16:43:12.152Z,21.00
2018-09-13T16:48:39.775Z,21.20
2018-09-13T16:54:02.081Z,21.20
2018-09-13T16:59:24.016Z,21.00
2018-09-13T17:04:46.214Z,20.80
2018-09-13T17:10:08.046Z,20.70
2018-09-13T17:15:30.361Z,20.70
2018-09-13T17:20:52.821Z,20.60
2018-09-13T17:26:14.729Z,20.40
2018-09-13T17:31:36.777Z,20.20
2018-09-13T17:36:58.679Z,19.90
2018-09-13T17:42:20.643Z,19.50
2018-09-13T17:47:42.437Z,19.40
2018-09-13T17:53:08.235Z,19.20
2018-09-13T17:58:30.001Z,19.00
2018-09-13T18:03:52.086Z,18.70
2018-09-13T18:09:13.730Z,18.50
2018-09-13T18:14:35.834Z,18.30
2018-09-13T18:19:57.602Z,18.20
2018-09-13T18:25:19.742Z,18.00
2018-09-13T18:30:42.154Z,17.80
2018-09-13T18:36:04.142Z,17.70
2018-09-13T18:41:26.290Z,17.50
2018-09-13T18:46:48.296Z,17.30
2018-09-13T18:52:10.491Z,17.10
2018-09-13T18:57:32.605Z,16.90
2018-09-13T19:02:55.849Z,16.80
2018-09-13T19:08:17.751Z,16.80
2018-09-13T19:13:39.892Z,16.60
2018-09-13T19:19:01.647Z,16.50
2018-09-13T19:24:23.731Z,16.40
2018-09-13T19:29:45.572Z,16.30
2018-09-13T19:35:07.796Z,16.20
2018-09-13T19:40:29.569Z,16.10
2018-09-13T19:45:51.633Z,15.90
2018-09-13T19:51:13.447Z,15.70
2018-09-13T19:56:35.645Z,15.70
2018-09-13T20:01:58.854Z,15.60
2018-09-13T20:07:21.214Z,15.50
2018-09-13T20:12:43.037Z,15.30
2018-09-13T20:18:05.218Z,15.20
2018-09-13T20:23:27.054Z,15.10
2018-09-13T20:28:49.748Z,15.10
2018-09-13T20:34:12.250Z,15.00
2018-09-13T20:39:34.589Z,14.90
2018-09-13T20:44:56.653Z,14.80
2018-09-13T20:50:18.730Z,14.70
2018-09-13T20:55:40.701Z,14.60
2018-09-13T21:01:02.895Z,14.60
2018-09-13T21:06:24.862Z,14.50
2018-09-13T21:11:47.591Z,14.40
2018-09-13T21:17:09.675Z,14.30
2018-09-13T21:22:31.506Z,14.30
2018-09-13T21:27:53.577Z,14.10
2018-09-13T21:33:15.420Z,14.00
2018-09-13T21:38:37.606Z,14.00
2018-09-13T21:43:59.418Z,13.90
2018-09-13T21:49:21.509Z,13.90
2018-09-13T21:54:43.433Z,13.80
2018-09-13T22:00:06.289Z,13.60
2018-09-13T22:05:28.266Z,13.60
2018-09-13T22:10:51.009Z,13.70
2018-09-13T22:16:13.225Z,13.60
2018-09-13T22:21:35.408Z,13.60
2018-09-13T22:26:57.431Z,13.40
2018-09-13T22:32:19.219Z,13.40
2018-09-13T22:37:41.101Z,13.30
2018-09-13T22:43:03.027Z,13.20
2018-09-13T22:48:25.433Z,13.20
2018-09-13T22:53:47.334Z,13.20
2018-09-13T22:59:09.412Z,13.00
2018-09-13T23:04:31.284Z,13.10
2018-09-13T23:09:53.398Z,13.10
2018-09-13T23:15:15.618Z,13.10
2018-09-13T23:20:37.642Z,13.10
2018-09-13T23:25:59.948Z,13.00
2018-09-13T23:31:21.897Z,13.00
2018-09-13T23:36:44.161Z,12.90
2018-09-13T23:42:06.071Z,12.90
2018-09-13T23:47:28.235Z,12.80
2018-09-13T23:52:51.217Z,12.80
2018-09-13T23:58:13.483Z,12.80
